Accueil
METAR-TAF:

METAR-TAF

Aéroports :

Aéroport international de Phnom Penh

Phnom Penh, Cambodge

latitude: 11-33N, longitude: 104-51E, altitude: 10 m

Observation

Le bulletin a été fait il y a 30 minutes, à 00:30 UTC
Vent 6 kt de nord-est, variant entre nord et est/nord-est
Température 25°C
Humidité 57%
Pression 1017 hPa
Visibilité 10 km ou plus
Quelques nuages à une hauteur de 1500 ft

METAR: VDPP 220030Z 04006KT 360V070 9999 FEW015 25/16 Q1017

Heure: 08:00 (01:00 UTC)

Prévision

Le bulletin a été fait il y a 2 heures et 0 minutes, à 23:00 UTC
Prévision valable du 22 à 00 UTC au 22 à 18 UTC
Vent 10 kt de est/nord-est
Visibilité 10 km ou plus
Nuages épars à une hauteur de 1700 ft

TAF: VDPP 212300Z 2200/2218 07010KT 9999 SCT017

Observations et prévisions météorologiques de plus de 4000 aéroports (messages METAR et TAF).

Les stations disponibles sont représentées par des disques jaunes et rouges sur la carte.

Passer la souris dessus pour voir le nom de la station.

Cliquer dessus pour voir les observations et prévisions météorologiques.

Pour changer de carte: cliquez sur les boutons verts avec une croix noire pour zoomer, sur le bouton vert avec un tiret pour effectuer un zoom arrière, ou sur les flèches vertes pour les cartes adjacentes.


METAR-TAF: